Time;durP1;ratioP1;P1;durP2;ratioP2;P2;SDS_P1;SDS_P2;PMS_P1;PMS_P2;Temp;Humidity;BMP_temperature;BMP_pressure;BME280_temperature;BME280_humidity;BME280_pressure;Samples;Min_cycle;Max_cycle;Signal;HPM_P1;HPM_P2
2021/03/04 00:00:47;;;;;;;26.62;14.70;;;;;;;4.55;55.75;101482.55;1605518;89;21223;-65
2021/03/04 00:03:15;;;;;;;25.75;13.58;;;;;;;4.53;55.86;101475.09;1634936;88;21195;-65
2021/03/04 00:05:44;;;;;;;27.73;14.70;;;;;;;4.48;56.15;101466.67;1605958;89;21211;-65
2021/03/04 00:08:12;;;;;;;22.37;14.13;;;;;;;4.42;56.37;101468.26;1633492;88;21297;-56
2021/03/04 00:10:41;;;;;;;24.45;14.00;;;;;;;4.42;56.53;101463.05;1608296;89;21342;-55
2021/03/04 00:13:08;;;;;;;26.80;15.20;;;;;;;4.43;56.70;101455.69;1632905;88;21196;-56
2021/03/04 00:15:38;;;;;;;26.70;14.30;;;;;;;4.44;56.74;101460.47;1590020;89;21191;-56
2021/03/04 00:18:06;;;;;;;25.67;15.20;;;;;;;4.43;56.90;101449.17;1617488;89;21187;-65
2021/03/04 00:20:34;;;;;;;30.08;16.55;;;;;;;4.44;56.91;101451.34;1633917;87;21174;-65
2021/03/04 00:23:02;;;;;;;29.30;16.87;;;;;;;4.41;56.94;101446.94;1632097;88;21276;-55
2021/03/04 00:25:33;;;;;;;29.57;15.38;;;;;;;4.38;57.37;101444.23;1630750;88;21184;-56
2021/03/04 00:28:02;;;;;;;24.18;14.80;;;;;;;4.35;57.62;101445.44;1627686;88;21192;-56
2021/03/04 00:30:30;;;;;;;26.82;15.00;;;;;;;4.35;57.41;101435.45;1608557;88;21184;-64
2021/03/04 00:32:58;;;;;;;30.02;15.48;;;;;;;4.33;57.58;101439.73;1627034;88;21599;-64
2021/03/04 00:35:25;;;;;;;24.10;14.10;;;;;;;4.33;57.59;101428.88;1606157;88;21205;-64
2021/03/04 00:37:53;;;;;;;27.32;15.00;;;;;;;4.28;57.85;101430.05;1604063;88;21192;-56
2021/03/04 00:40:21;;;;;;;28.47;14.28;;;;;;;4.30;57.80;101430.98;1618569;86;21170;-56
2021/03/04 00:42:49;;;;;;;29.42;16.45;;;;;;;4.29;57.87;101416.18;1632738;88;21175;-64
2021/03/04 00:45:22;;;;;;;33.53;17.42;;;;;;;4.30;57.82;101424.47;1630820;88;21194;-64
2021/03/04 00:47:52;;;;;;;26.57;15.68;;;;;;;4.30;57.81;101416.64;1626698;87;21314;-56
2021/03/04 00:50:21;;;;;;;26.05;15.03;;;;;;;4.29;57.67;101407.45;1626586;88;21605;-64
2021/03/04 00:52:50;;;;;;;33.33;16.20;;;;;;;4.26;57.74;101403.05;1630142;88;21158;-64
2021/03/04 00:55:18;;;;;;;22.32;12.98;;;;;;;4.22;57.79;101394.67;1630785;88;21299;-64
2021/03/04 00:57:45;;;;;;;26.75;15.68;;;;;;;4.22;57.75;101395.98;1632494;88;21170;-56
2021/03/04 01:00:15;;;;;;;31.07;15.63;;;;;;;4.22;57.64;101388.56;1632847;86;21174;-64
2021/03/04 01:02:42;;;;;;;29.07;16.27;;;;;;;4.17;57.77;101385.83;1613285;88;21583;-56
2021/03/04 01:05:12;;;;;;;25.05;13.90;;;;;;;4.15;57.82;101382.29;1603960;89;21247;-56
2021/03/04 01:07:41;;;;;;;21.33;12.33;;;;;;;4.14;57.76;101377.52;1618359;88;21155;-64
2021/03/04 01:10:11;;;;;;;25.55;13.05;;;;;;;4.15;57.86;101383.59;1632696;88;21163;-56
2021/03/04 01:12:39;;;;;;;31.15;16.15;;;;;;;4.14;57.76;101381.42;1608532;88;21180;-56
2021/03/04 01:15:14;;;;;;;37.30;18.98;;;;;;;4.13;57.84;101371.84;1604068;89;21239;-56
2021/03/04 01:17:41;;;;;;;30.37;16.52;;;;;;;4.16;57.96;101369.73;1629617;88;21158;-55
2021/03/04 01:20:12;;;;;;;40.63;19.35;;;;;;;4.16;58.02;101371.93;1605212;88;21210;-64
2021/03/04 01:22:39;;;;;;;37.93;17.50;;;;;;;4.16;58.09;101360.20;1590843;88;21223;-56
2021/03/04 01:25:08;;;;;;;40.38;19.02;;;;;;;4.19;58.20;101358.53;1634076;86;21193;-64
2021/03/04 01:27:37;;;;;;;27.50;14.23;;;;;;;4.20;58.14;101355.05;1609687;89;21171;-64
2021/03/04 01:30:07;;;;;;;29.30;13.72;;;;;;;4.23;57.96;101352.54;1607564;89;21178;-64
2021/03/04 01:32:35;;;;;;;21.82;11.43;;;;;;;4.22;58.08;101346.46;1634677;88;21138;-64
2021/03/04 01:35:04;;;;;;;29.37;14.60;;;;;;;4.23;58.30;101353.44;1609043;87;21345;-56
2021/03/04 01:37:32;;;;;;;24.82;12.95;;;;;;;4.24;58.27;101346.09;1632378;88;21593;-64
2021/03/04 01:39:59;;;;;;;26.05;14.38;;;;;;;4.25;58.22;101334.83;1609160;87;21218;-56
2021/03/04 01:42:26;;;;;;;30.70;16.12;;;;;;;4.26;58.18;101346.12;1632666;88;21613;-64
2021/03/04 01:44:54;;;;;;;24.85;14.25;;;;;;;4.24;58.43;101336.06;1593162;88;21341;-64
2021/03/04 01:47:22;;;;;;;29.25;14.93;;;;;;;4.24;58.35;101339.57;1614551;87;21648;-56
2021/03/04 01:49:49;;;;;;;31.12;16.32;;;;;;;4.24;58.56;101339.57;1589974;89;21135;-56
2021/03/04 01:52:17;;;;;;;29.90;14.60;;;;;;;4.24;58.63;101335.66;1606067;88;21665;-64
2021/03/04 01:54:44;;;;;;;27.90;14.50;;;;;;;4.25;58.87;101327.41;1629760;88;21300;-64
2021/03/04 01:57:13;;;;;;;28.15;14.23;;;;;;;4.27;58.90;101321.42;1584073;89;21344;-64
2021/03/04 01:59:40;;;;;;;25.55;14.25;;;;;;;4.29;59.01;101318.84;1603930;88;21328;-64
2021/03/04 02:02:08;;;;;;;28.45;15.65;;;;;;;4.32;59.01;101320.23;1621601;88;21222;-64
2021/03/04 02:04:36;;;;;;;23.15;13.18;;;;;;;4.33;59.07;101315.48;1623471;88;21190;-56
2021/03/04 02:07:40;;;;;;;26.10;13.93;;;;;;;4.33;59.31;101319.39;1623461;88;21175;-64
2021/03/04 02:10:46;;;;;;;25.95;14.05;;;;;;;4.35;59.18;101312.94;1634522;88;21320;-64
2021/03/04 02:13:41;;;;;;;27.67;14.05;;;;;;;4.38;59.23;101302.60;1615351;88;21165;-64
2021/03/04 02:16:22;;;;;;;23.07;12.80;;;;;;;4.41;59.27;101302.69;1602359;87;21185;-56
2021/03/04 02:18:59;;;;;;;25.85;13.53;;;;;;;4.43;59.42;101303.18;1618583;88;21146;-62
2021/03/04 02:21:54;;;;;;;26.17;13.93;;;;;;;4.45;59.52;101298.00;1652218;85;21213;-56
2021/03/04 02:24:29;;;;;;;27.85;14.00;;;;;;;4.46;59.49;101294.14;1597291;88;21639;-55
2021/03/04 02:27:16;;;;;;;29.30;14.85;;;;;;;4.48;59.56;101283.74;1623707;88;21634;-64
2021/03/04 02:29:52;;;;;;;30.85;16.37;;;;;;;4.47;59.75;101283.28;1607255;89;21210;-64
2021/03/04 02:32:23;;;;;;;28.47;14.83;;;;;;;4.50;59.68;101282.06;1620086;87;21171;-63
2021/03/04 02:34:56;;;;;;;32.25;16.62;;;;;;;4.51;59.70;101286.44;1634868;88;21218;-56
2021/03/04 02:37:24;;;;;;;31.55;17.07;;;;;;;4.54;59.71;101284.35;1633791;87;21183;-56
2021/03/04 02:39:53;;;;;;;29.12;15.38;;;;;;;4.54;59.73;101277.39;1624272;88;21199;-56
2021/03/04 02:42:22;;;;;;;31.37;16.20;;;;;;;4.54;59.90;101277.83;1622662;88;21154;-56
2021/03/04 02:44:52;;;;;;;29.75;16.35;;;;;;;4.56;59.74;101277.45;1622567;88;21760;-64
2021/03/04 02:47:21;;;;;;;31.75;17.87;;;;;;;4.54;59.76;101280.00;1622388;87;21138;-57
2021/03/04 02:49:50;;;;;;;35.63;19.67;;;;;;;4.54;59.78;101281.30;1625416;87;21196;-64
2021/03/04 02:52:18;;;;;;;36.17;18.07;;;;;;;4.54;59.85;101276.09;1625088;86;21228;-63
2021/03/04 02:54:45;;;;;;;33.78;16.62;;;;;;;4.55;59.73;101271.34;1653263;87;21171;-63
2021/03/04 02:57:13;;;;;;;36.68;18.90;;;;;;;4.55;59.72;101269.17;1653521;85;21192;-56
2021/03/04 02:59:43;;;;;;;29.25;16.10;;;;;;;4.53;59.66;101261.73;1624427;88;21174;-64
2021/03/04 03:02:11;;;;;;;31.57;16.62;;;;;;;4.50;59.74;101262.51;1642904;86;21174;-56
2021/03/04 03:04:40;;;;;;;36.63;16.52;;;;;;;4.48;59.79;101257.67;1653726;86;21197;-63
2021/03/04 03:07:08;;;;;;;29.55;15.90;;;;;;;4.45;59.87;101255.88;1622382;87;21202;-64
2021/03/04 03:09:39;;;;;;;27.85;13.88;;;;;;;4.48;59.86;101254.20;1623407;88;21182;-63
2021/03/04 03:12:08;;;;;;;30.90;14.13;;;;;;;4.49;59.79;101252.92;1620862;87;21605;-56
2021/03/04 03:14:36;;;;;;;21.45;11.97;;;;;;;4.49;59.80;101251.62;1622743;86;21157;-64
2021/03/04 03:17:05;;;;;;;31.25;15.13;;;;;;;4.51;59.86;101251.23;1643317;86;21177;-64
2021/03/04 03:19:33;;;;;;;26.02;14.03;;;;;;;4.50;59.88;101246.00;1622227;87;21214;-56
2021/03/04 03:22:01;;;;;;;28.45;15.65;;;;;;;4.51;59.99;101246.02;1581194;91;21210;-56
2021/03/04 03:24:29;;;;;;;27.98;14.73;;;;;;;4.55;59.98;101245.27;1637002;87;21114;-63
2021/03/04 03:26:56;;;;;;;25.20;13.68;;;;;;;4.59;59.93;101247.55;1606216;89;21295;-63
2021/03/04 03:29:24;;;;;;;27.80;13.88;;;;;;;4.63;59.86;101243.28;1635161;88;21158;-56
2021/03/04 03:31:51;;;;;;;26.57;14.50;;;;;;;4.61;59.90;101245.87;1635356;88;21150;-55
2021/03/04 03:34:19;;;;;;;29.90;15.88;;;;;;;4.63;59.65;101243.28;1606008;89;21180;-63
2021/03/04 03:36:47;;;;;;;33.25;15.83;;;;;;;4.61;59.58;101242.83;1632847;88;21194;-63
2021/03/04 03:39:14;;;;;;;27.82;14.60;;;;;;;4.62;59.69;101238.51;1607546;89;21182;-56
2021/03/04 03:41:42;;;;;;;28.75;14.65;;;;;;;4.65;59.60;101235.95;1635459;88;21154;-56
2021/03/04 03:44:11;;;;;;;25.88;14.03;;;;;;;4.64;59.57;101230.71;1606163;89;21163;-63
2021/03/04 03:46:38;;;;;;;24.80;13.10;;;;;;;4.65;59.54;101230.73;1633121;88;21202;-64
2021/03/04 03:49:07;;;;;;;29.85;14.65;;;;;;;4.51;59.69;101223.86;1590232;89;21147;-64
2021/03/04 03:51:35;;;;;;;22.42;11.60;;;;;;;4.39;59.97;101228.78;1621331;87;21173;-64
2021/03/04 03:54:07;;;;;;;26.80;14.35;;;;;;;4.34;60.09;101225.16;1607851;89;21200;-63
2021/03/04 03:56:36;;;;;;;31.75;16.45;;;;;;;4.31;59.99;101220.73;1635450;88;21623;-56
2021/03/04 03:59:05;;;;;;;38.15;17.20;;;;;;;4.28;60.07;101219.34;1582806;89;21175;-57
2021/03/04 04:01:34;;;;;;;37.17;17.67;;;;;;;4.27;60.00;101225.39;1631807;87;21165;-63
2021/03/04 04:04:03;;;;;;;33.65;15.85;;;;;;;4.23;59.95;101211.81;1606079;89;21159;-63
2021/03/04 04:06:32;;;;;;;40.52;18.55;;;;;;;4.21;60.02;101213.09;1635356;88;21186;-63
2021/03/04 04:09:00;;;;;;;36.42;16.48;;;;;;;4.22;59.91;101204.44;1605866;89;21310;-56
2021/03/04 04:11:29;;;;;;;31.55;14.33;;;;;;;4.21;59.80;101197.45;1635343;86;21139;-64
2021/03/04 04:13:57;;;;;;;28.55;13.00;;;;;;;4.20;59.80;101189.58;1591499;89;21211;-56
2021/03/04 04:16:25;;;;;;;31.45;15.25;;;;;;;4.20;59.79;101186.56;1613767;89;21203;-56
2021/03/04 04:18:53;;;;;;;29.00;14.23;;;;;;;4.18;59.80;101188.69;1589719;89;21190;-55
2021/03/04 04:21:21;;;;;;;27.85;12.90;;;;;;;4.17;59.72;101181.27;1632894;86;21182;-63
2021/03/04 04:23:49;;;;;;;24.18;13.15;;;;;;;4.27;59.65;101187.61;1604232;88;21167;-64
2021/03/04 04:26:17;;;;;;;22.30;12.20;;;;;;;4.27;59.59;101178.08;1623796;86;21155;-63
2021/03/04 04:28:44;;;;;;;17.12;9.45;;;;;;;4.24;59.81;101183.61;1657939;86;21269;-64
2021/03/04 04:31:12;;;;;;;18.07;9.45;;;;;;;4.24;59.91;101183.20;1658555;85;21182;-56
2021/03/04 04:33:39;;;;;;;19.55;10.20;;;;;;;4.24;59.93;101176.69;1630478;88;21194;-57
2021/03/04 04:36:07;;;;;;;17.98;9.98;;;;;;;4.26;59.93;101167.19;1658540;85;21175;-56
2021/03/04 04:38:35;;;;;;;22.02;12.13;;;;;;;4.30;60.11;101160.33;1629449;88;21164;-63
2021/03/04 04:41:02;;;;;;;17.92;10.30;;;;;;;4.34;60.32;101156.09;1639132;87;21207;-56
2021/03/04 04:43:30;;;;;;;19.27;9.80;;;;;;;4.40;60.26;101154.51;1617664;89;21171;-63
2021/03/04 04:45:58;;;;;;;22.40;12.07;;;;;;;4.41;60.36;101158.88;1647296;86;21215;-63
2021/03/04 04:48:25;;;;;;;17.00;9.43;;;;;;;4.58;60.04;101157.13;1630631;88;21313;-56
2021/03/04 04:50:55;;;;;;;17.17;9.45;;;;;;;4.59;60.00;101148.47;1658017;86;21196;-63
2021/03/04 04:53:22;;;;;;;23.07;10.85;;;;;;;4.57;60.21;101152.77;1658606;86;21154;-63
2021/03/04 04:55:50;;;;;;;21.45;11.25;;;;;;;4.57;60.34;101147.55;1629637;88;21240;-63
2021/03/04 04:58:17;;;;;;;21.27;10.72;;;;;;;4.60;60.33;101149.80;1653267;86;21178;-63
2021/03/04 05:00:45;;;;;;;23.40;11.12;;;;;;;4.63;60.42;101155.53;1657257;86;21205;-57
2021/03/04 05:03:13;;;;;;;19.60;9.78;;;;;;;4.61;60.66;101145.48;1657158;86;21190;-58
2021/03/04 05:05:40;;;;;;;23.65;11.93;;;;;;;4.66;60.67;101145.14;1656080;86;21206;-57
2021/03/04 05:08:08;;;;;;;23.27;12.10;;;;;;;4.66;61.08;101141.23;1626872;88;21219;-62
2021/03/04 05:10:35;;;;;;;21.90;11.53;;;;;;;4.70;61.24;101136.55;1635122;86;21151;-63
2021/03/04 05:13:03;;;;;;;19.42;10.68;;;;;;;4.79;61.36;101138.92;1630696;87;21183;-56
2021/03/04 05:15:30;;;;;;;20.80;11.22;;;;;;;4.88;61.16;101137.40;1628875;88;21194;-63
2021/03/04 05:17:58;;;;;;;19.45;10.90;;;;;;;4.96;61.04;101128.87;1657543;86;21183;-63
2021/03/04 05:20:26;;;;;;;25.50;12.13;;;;;;;5.02;61.13;101126.00;1628113;86;21328;-63
2021/03/04 05:22:54;;;;;;;16.77;9.30;;;;;;;5.05;61.33;101120.86;1650884;87;21143;-63
2021/03/04 05:25:22;;;;;;;19.70;10.10;;;;;;;5.20;61.30;101121.61;1651312;87;21155;-63
2021/03/04 05:27:50;;;;;;;23.18;12.35;;;;;;;5.36;61.22;101120.61;1652326;87;21164;-57
2021/03/04 05:30:19;;;;;;;25.80;13.15;;;;;;;5.46;61.14;101117.35;1651609;87;21247;-56
2021/03/04 05:32:46;;;;;;;26.27;13.25;;;;;;;5.59;60.99;101104.11;1650449;87;21156;-63
2021/03/04 05:35:14;;;;;;;26.77;13.62;;;;;;;5.66;61.05;101109.05;1650333;87;21192;-63
2021/03/04 05:37:42;;;;;;;27.80;14.87;;;;;;;5.59;61.50;101101.50;1651384;87;21196;-63
2021/03/04 05:40:12;;;;;;;24.18;12.78;;;;;;;5.68;61.51;101104.74;1651439;87;21120;-56
2021/03/04 05:42:42;;;;;;;29.30;14.50;;;;;;;5.69;61.92;101106.91;1644375;87;21118;-64
2021/03/04 05:45:15;;;;;;;29.25;14.98;;;;;;;5.99;61.31;101099.19;1626304;86;21325;-56
2021/03/04 05:47:43;;;;;;;30.32;15.58;;;;;;;6.13;61.15;101094.27;1626712;88;21174;-63
2021/03/04 05:50:17;;;;;;;34.20;16.60;;;;;;;6.27;60.95;101089.27;1645968;85;21174;-56
2021/03/04 05:52:50;;;;;;;30.25;15.98;;;;;;;6.37;60.88;101090.74;1625117;88;21171;-63
2021/03/04 05:55:18;;;;;;;32.90;17.52;;;;;;;6.40;61.05;101088.63;1633701;87;21297;-63
2021/03/04 05:57:45;;;;;;;31.97;16.73;;;;;;;6.53;60.93;101087.08;1643456;87;21191;-63
2021/03/04 06:00:15;;;;;;;28.12;15.60;;;;;;;6.63;60.92;101089.40;1619649;86;21175;-56
2021/03/04 06:02:43;;;;;;;24.15;14.10;;;;;;;6.73;60.89;101085.17;1625164;88;21171;-56
2021/03/04 06:05:13;;;;;;;25.00;14.03;;;;;;;6.89;60.81;101077.12;1653029;85;21487;-63
2021/03/04 06:07:45;;;;;;;30.57;15.23;;;;;;;6.95;60.92;101081.13;1624574;88;21179;-63
2021/03/04 06:10:14;;;;;;;28.55;14.93;;;;;;;7.06;60.81;101074.76;1652438;87;21144;-64
2021/03/04 06:12:42;;;;;;;26.97;14.23;;;;;;;7.12;60.90;101072.20;1650806;85;21138;-63
2021/03/04 06:15:11;;;;;;;27.52;13.95;;;;;;;7.32;60.76;101076.38;1651414;87;21151;-64
2021/03/04 06:17:39;;;;;;;25.23;14.60;;;;;;;7.52;60.27;101077.05;1623283;87;21297;-57
2021/03/04 06:20:09;;;;;;;32.17;16.67;;;;;;;7.64;60.23;101073.27;1628303;86;21188;-64
2021/03/04 06:22:44;;;;;;;31.02;15.90;;;;;;;7.74;60.14;101076.41;1664148;84;21175;-59
2021/03/04 06:25:13;;;;;;;31.50;16.67;;;;;;;7.88;59.82;101071.34;1634084;86;21785;-64
2021/03/04 06:27:48;;;;;;;35.00;17.02;;;;;;;8.02;59.59;101070.16;1632002;86;21503;-58
2021/03/04 06:30:19;;;;;;;29.87;16.40;;;;;;;8.18;59.59;101064.61;1621225;86;21209;-56
2021/03/04 06:33:01;;;;;;;26.30;13.75;;;;;;;8.28;59.43;101057.69;1660913;86;21195;-64
2021/03/04 06:35:38;;;;;;;25.52;15.45;;;;;;;8.43;58.94;101054.75;1638230;87;21212;-64
2021/03/04 06:38:25;;;;;;;29.95;15.83;;;;;;;8.54;58.37;101064.03;1667422;86;21174;-57
2021/03/04 06:40:53;;;;;;;30.65;16.62;;;;;;;8.62;58.22;101051.85;1668289;84;21167;-64
2021/03/04 06:43:23;;;;;;;34.55;18.92;;;;;;;8.69;58.11;101045.78;1666465;86;21329;-63
2021/03/04 06:46:05;;;;;;;31.03;16.13;;;;;;;8.77;57.87;101045.81;1668597;86;21601;-64
2021/03/04 06:48:34;;;;;;;33.88;17.48;;;;;;;8.86;57.87;101045.88;1665595;86;21154;-64
2021/03/04 06:51:05;;;;;;;30.27;16.02;;;;;;;8.89;57.35;101035.39;1668240;84;21202;-56
2021/03/04 06:53:33;;;;;;;34.43;18.98;;;;;;;8.99;57.58;101045.50;1667377;86;21167;-56
2021/03/04 06:56:05;;;;;;;40.45;21.57;;;;;;;9.06;57.30;101040.72;1666603;86;21163;-63
2021/03/04 06:58:41;;;;;;;48.00;25.50;;;;;;;9.09;56.72;101024.09;1664806;86;21303;-57
2021/03/04 07:01:17;;;;;;;36.03;20.02;;;;;;;9.11;56.71;101026.28;1666058;84;21735;-57
2021/03/04 07:03:47;;;;;;;36.80;19.77;;;;;;;9.22;56.46;101032.47;1643332;86;21181;-63
2021/03/04 07:06:19;;;;;;;32.90;17.23;;;;;;;9.33;56.53;101021.13;1662595;86;21590;-63
2021/03/04 07:08:49;;;;;;;31.45;18.55;;;;;;;9.42;56.70;101011.06;1668401;86;21198;-57
2021/03/04 07:11:20;;;;;;;28.32;16.10;;;;;;;9.59;56.28;101006.74;1657932;84;21168;-57
2021/03/04 07:13:48;;;;;;;30.08;17.07;;;;;;;9.56;55.97;100999.27;1638176;86;21208;-57
2021/03/04 07:16:23;;;;;;;33.33;17.92;;;;;;;9.76;56.09;101003.23;1665500;86;21359;-57
2021/03/04 07:18:55;;;;;;;31.95;17.40;;;;;;;9.88;55.71;100994.52;1661804;86;21124;-57
2021/03/04 07:21:29;;;;;;;26.60;16.50;;;;;;;10.04;55.21;100994.06;1649504;84;21167;-63
2021/03/04 07:23:57;;;;;;;41.58;22.20;;;;;;;10.07;54.73;100987.04;1640177;87;21595;-57
2021/03/04 07:26:24;;;;;;;36.03;18.40;;;;;;;10.25;55.15;100973.45;1644535;86;21338;-63
2021/03/04 07:28:53;;;;;;;30.48;16.73;;;;;;;10.37;54.61;100964.64;1643329;87;21122;-64
2021/03/04 07:31:21;;;;;;;30.80;18.23;;;;;;;10.43;54.57;100959.41;1635253;86;21655;-58
2021/03/04 07:33:49;;;;;;;31.25;17.32;;;;;;;10.48;54.26;100960.27;1644190;87;21491;-58
2021/03/04 07:36:23;;;;;;;35.92;20.65;;;;;;;10.59;54.15;100962.87;1644019;85;21213;-63
2021/03/04 07:39:03;;;;;;;33.00;18.62;;;;;;;10.72;53.62;100951.84;1644034;86;21138;-64
2021/03/04 07:41:38;;;;;;;;;;;;;;;10.76;53.67;100941.74;1634373;85;21202;-64
2021/03/04 07:44:07;;;;;;;28.77;17.17;;;;;;;10.62;53.54;100938.28;1600672;90;20181;-60
2021/03/04 07:46:44;;;;;;;29.90;17.27;;;;;;;10.60;53.63;100944.02;1623475;87;21139;-64
2021/03/04 07:49:12;;;;;;;30.80;17.25;;;;;;;10.48;53.88;100937.02;1651231;87;21172;-57
2021/03/04 07:51:46;;;;;;;31.12;18.85;;;;;;;10.65;53.54;100929.05;1653072;87;21213;-58
2021/03/04 07:54:15;;;;;;;30.12;16.70;;;;;;;10.69;54.02;100910.63;1652976;87;21171;-58
2021/03/04 07:56:43;;;;;;;28.92;17.42;;;;;;;10.92;53.27;100900.87;1651956;87;21195;-58
2021/03/04 07:59:15;;;;;;;29.25;17.73;;;;;;;11.06;53.05;100900.33;1623523;88;21167;-63
2021/03/04 08:01:56;;;;;;;34.85;23.57;;;;;;;11.00;53.16;100905.66;1655410;87;21179;-59
2021/03/04 08:04:26;;;;;;;;;;;;;;;11.24;52.96;100907.69;1651430;85;21159;-63
2021/03/04 08:06:55;;;;;;;29.25;16.85;;;;;;;11.22;52.44;100902.88;1626623;88;20139;-58
2021/03/04 08:09:31;;;;;;;32.05;18.07;;;;;;;11.34;52.09;100892.26;1625092;87;21208;-63
2021/03/04 08:12:14;;;;;;;29.60;17.60;;;;;;;11.27;52.42;100891.41;1644630;87;21158;-59
2021/03/04 08:14:54;;;;;;;31.45;16.93;;;;;;;11.25;52.35;100894.95;1652157;87;21176;-59
2021/03/04 08:17:22;;;;;;;32.85;18.37;;;;;;;11.34;52.47;100885.67;1625475;86;21313;-64
2021/03/04 08:19:50;;;;;;;31.40;17.75;;;;;;;11.48;52.47;100876.33;1628792;88;21169;-64
2021/03/04 08:22:19;;;;;;;29.20;16.85;;;;;;;11.61;52.37;100862.59;1651575;85;21178;-63
2021/03/04 08:24:47;;;;;;;28.23;16.40;;;;;;;11.79;51.98;100864.65;1629346;88;21618;-59
2021/03/04 08:27:15;;;;;;;29.00;18.02;;;;;;;11.90;51.46;100858.38;1657107;86;21140;-59
2021/03/04 08:29:47;;;;;;;28.55;16.30;;;;;;;12.08;51.48;100853.84;1629231;88;21187;-64
2021/03/04 08:32:17;;;;;;;29.85;18.62;;;;;;;12.17;51.21;100851.07;1632109;87;21188;-65
2021/03/04 08:34:46;;;;;;;26.37;16.07;;;;;;;12.34;50.50;100842.98;1616120;86;21162;-60
2021/03/04 08:37:22;;;;;;;28.27;17.90;;;;;;;12.49;50.42;100839.70;1625234;88;21194;-65
2021/03/04 08:40:01;;;;;;;30.88;17.87;;;;;;;12.52;49.88;100827.78;1653475;86;21135;-63
2021/03/04 08:42:29;;;;;;;34.27;20.02;;;;;;;12.65;49.92;100819.23;1631923;87;21360;-63
2021/03/04 08:44:57;;;;;;;28.00;18.02;;;;;;;12.85;49.77;100814.13;1648950;85;21182;-64
2021/03/04 08:47:25;;;;;;;31.82;18.07;;;;;;;12.99;49.51;100820.52;1630149;88;21894;-59
2021/03/04 08:49:58;;;;;;;30.40;18.15;;;;;;;12.98;49.02;100819.67;1639475;86;21159;-58
2021/03/04 08:52:29;;;;;;;27.30;16.48;;;;;;;13.03;49.15;100809.02;1657113;86;21609;-58
2021/03/04 08:55:03;;;;;;;26.17;17.37;;;;;;;13.06;48.89;100804.54;1657506;86;21157;-61
2021/03/04 08:57:28;;;;;;;28.23;17.50;;;;;;;13.14;48.75;100798.27;1657362;86;21160;-59
2021/03/04 09:00:11;;;;;;;34.30;19.70;;;;;;;13.18;48.83;100799.53;1656585;86;21157;-58
2021/03/04 09:02:41;;;;;;;34.30;20.85;;;;;;;13.18;48.78;100799.53;1656302;86;21186;-63
2021/03/04 09:05:10;;;;;;;27.50;17.57;;;;;;;13.19;48.62;100795.99;1629220;88;21216;-63
2021/03/04 09:07:44;;;;;;;26.68;16.77;;;;;;;13.14;48.81;100794.30;1630310;86;21235;-58
2021/03/04 09:10:12;;;;;;;31.07;18.65;;;;;;;13.19;48.96;100801.28;1647124;85;21181;-59
2021/03/04 09:12:44;;;;;;;28.70;18.12;;;;;;;13.38;48.87;100794.34;1637921;87;21277;-64
2021/03/04 09:15:15;;;;;;;43.98;24.70;;;;;;;13.52;48.57;100779.58;1635442;86;21192;-64
2021/03/04 09:17:43;;;;;;;30.50;20.10;;;;;;;13.73;48.26;100776.13;1658749;86;21163;-64
2021/03/04 09:20:13;;;;;;;32.98;19.10;;;;;;;13.82;47.97;100775.95;1658752;85;21558;-58
2021/03/04 09:22:43;;;;;;;26.48;16.97;;;;;;;13.85;47.95;100776.33;1625849;88;21202;-64
2021/03/04 09:25:12;;;;;;;35.13;21.10;;;;;;;13.85;47.62;100773.69;1655212;85;21187;-58
2021/03/04 09:27:40;;;;;;;31.40;18.15;;;;;;;13.91;47.45;100770.92;1643819;87;21188;-58
2021/03/04 09:30:09;;;;;;;32.05;20.55;;;;;;;13.89;47.75;100772.73;1655536;87;21179;-58
2021/03/04 09:32:38;;;;;;;27.48;17.70;;;;;;;14.05;47.72;100769.31;1654663;87;21602;-63
2021/03/04 09:35:11;;;;;;;32.03;20.00;;;;;;;14.27;47.80;100773.70;1653194;85;21363;-58
2021/03/04 09:37:38;;;;;;;26.35;17.23;;;;;;;14.46;47.40;100760.94;1627952;86;21325;-58
2021/03/04 09:40:08;;;;;;;29.85;18.15;;;;;;;14.20;46.77;100767.69;1656500;85;21287;-63
2021/03/04 09:42:39;;;;;;;29.67;19.75;;;;;;;14.55;46.53;100750.61;1649148;87;21336;-59
2021/03/04 09:45:11;;;;;;;28.38;17.87;;;;;;;14.69;46.30;100736.59;1653307;87;21531;-58
2021/03/04 09:47:46;;;;;;;25.60;17.23;;;;;;;14.82;46.21;100745.59;1652948;87;21162;-63
2021/03/04 09:50:26;;;;;;;29.80;18.02;;;;;;;14.95;45.87;100733.79;1651531;85;21585;-57
2021/03/04 09:53:07;;;;;;;29.87;18.52;;;;;;;15.20;46.00;100737.60;1651639;87;21153;-62
2021/03/04 09:55:42;;;;;;;28.92;18.87;;;;;;;15.49;45.67;100726.66;1651922;85;21203;-58
2021/03/04 09:58:16;;;;;;;36.80;25.85;;;;;;;15.80;45.02;100729.78;1655682;86;21301;-63
2021/03/04 10:00:44;;;;;;;34.98;23.12;;;;;;;16.10;44.40;100724.07;1649099;87;21155;-59
2021/03/04 10:03:13;;;;;;;31.85;20.25;;;;;;;16.25;43.38;100713.44;1613920;87;21212;-58
2021/03/04 10:05:50;;;;;;;28.80;19.92;;;;;;;16.27;42.62;100725.36;1622866;88;21212;-59
2021/03/04 10:08:18;;;;;;;28.65;18.60;;;;;;;16.18;42.46;100708.78;1628492;86;21210;-63
2021/03/04 10:10:49;;;;;;;29.02;18.23;;;;;;;16.16;42.42;100714.59;1612328;86;21209;-63
2021/03/04 10:13:29;;;;;;;26.42;17.80;;;;;;;16.25;42.76;100708.13;1609127;86;21186;-63
2021/03/04 10:16:08;;;;;;;28.12;18.35;;;;;;;16.35;42.74;100707.38;1661003;85;21322;-62
2021/03/04 10:18:36;;;;;;;26.42;18.07;;;;;;;16.55;42.36;100695.27;1627734;88;21220;-63
2021/03/04 10:21:04;;;;;;;31.60;21.10;;;;;;;16.75;41.81;100687.97;1649927;87;21193;-59
2021/03/04 10:23:32;;;;;;;27.65;19.12;;;;;;;16.78;41.31;100679.89;1659025;86;21125;-63
2021/03/04 10:26:00;;;;;;;30.92;19.20;;;;;;;16.82;41.00;100685.52;1656019;86;21609;-63
2021/03/04 10:28:27;;;;;;;27.00;18.70;;;;;;;16.77;41.64;100675.05;1646866;86;21485;-59
2021/03/04 10:30:57;;;;;;;25.12;18.60;;;;;;;16.94;41.56;100662.95;1659761;86;21151;-63
2021/03/04 10:33:27;;;;;;;35.58;22.17;;;;;;;16.88;41.36;100652.53;1646454;86;21192;-59
2021/03/04 10:35:56;;;;;;;27.32;18.45;;;;;;;16.91;41.22;100647.11;1658496;86;21171;-63
2021/03/04 10:38:24;;;;;;;27.58;17.87;;;;;;;16.88;41.16;100644.55;1655077;86;21133;-62
2021/03/04 10:40:52;;;;;;;25.65;17.32;;;;;;;16.94;40.58;100634.59;1662957;86;21631;-63
2021/03/04 10:43:20;;;;;;;28.00;18.55;;;;;;;17.07;40.72;100623.54;1661500;86;21192;-59
2021/03/04 10:45:48;;;;;;;25.55;18.32;;;;;;;17.06;40.79;100628.00;1664541;86;21159;-63
2021/03/04 10:48:16;;;;;;;23.55;16.65;;;;;;;17.09;40.15;100617.27;1661526;86;21206;-63
2021/03/04 10:50:44;;;;;;;24.77;16.90;;;;;;;17.12;40.02;100604.78;1660916;86;21197;-59
2021/03/04 10:53:12;;;;;;;25.32;16.60;;;;;;;17.21;39.70;100607.97;1637428;86;21245;-58
2021/03/04 10:55:41;;;;;;;26.95;18.15;;;;;;;17.24;39.92;100594.55;1644919;85;21200;-63
2021/03/04 10:58:09;;;;;;;27.75;18.12;;;;;;;17.34;40.47;100596.88;1646009;86;21332;-58
2021/03/04 11:00:36;;;;;;;26.82;17.50;;;;;;;17.51;40.56;100589.59;1662553;85;21188;-63
2021/03/04 11:03:05;;;;;;;27.48;16.80;;;;;;;17.62;40.32;100583.86;1662799;86;21149;-63
2021/03/04 11:05:34;;;;;;;28.20;18.42;;;;;;;17.62;40.10;100571.88;1663102;86;21205;-59
2021/03/04 11:08:02;;;;;;;26.70;18.32;;;;;;;17.86;40.36;100565.20;1663128;86;21325;-63
2021/03/04 11:10:30;;;;;;;25.77;18.00;;;;;;;17.83;39.49;100561.73;1660494;86;21191;-58
2021/03/04 11:12:58;;;;;;;28.25;19.27;;;;;;;17.82;39.53;100561.78;1655869;86;21357;-59
2021/03/04 11:15:26;;;;;;;23.80;17.20;;;;;;;17.70;40.02;100560.48;1662988;85;21321;-59
2021/03/04 11:17:54;;;;;;;23.45;16.25;;;;;;;17.66;40.16;100553.53;1662755;86;21672;-59
2021/03/04 11:20:24;;;;;;;29.55;18.98;;;;;;;17.78;40.16;100552.17;1662805;84;21198;-59
2021/03/04 11:22:52;;;;;;;28.15;19.23;;;;;;;17.73;40.03;100547.50;1644697;86;21186;-62
2021/03/04 11:25:19;;;;;;;27.10;18.60;;;;;;;17.73;40.16;100531.52;1630835;87;21617;-63
2021/03/04 11:27:47;;;;;;;26.60;18.75;;;;;;;17.74;39.90;100526.16;1642924;86;21565;-63